Time;durP1;ratioP1;P1;durP2;ratioP2;P2;SDS_P1;SDS_P2;PMS_P1;PMS_P2;Temp;Humidity;BMP_temperature;BMP_pressure;BME280_temperature;BME280_humidity;BME280_pressure;Samples;Min_cycle;Max_cycle;Signal;HPM_P1;HPM_P2
2022/01/05 00:02:27;;;;;;;1.40;1.20;;;11.20;60.20;;;;;;5049060;28;20451;-88
2022/01/05 00:04:54;;;;;;;2.17;1.97;;;11.30;60.40;;;;;;5061398;28;20476;-88
2022/01/05 00:07:21;;;;;;;2.80;1.73;;;11.50;60.60;;;;;;5078849;28;20754;-86
2022/01/05 00:09:48;;;;;;;1.50;1.40;;;11.40;59.50;;;;;;5069485;28;20456;-88
2022/01/05 00:12:17;;;;;;;1.43;1.33;;;11.40;59.40;;;;;;5050937;28;20909;-88
2022/01/05 00:14:44;;;;;;;1.50;1.40;;;11.40;59.50;;;;;;5065584;28;20497;-86
2022/01/05 00:17:11;;;;;;;1.70;1.50;;;11.30;60.10;;;;;;5052474;28;20464;-89
2022/01/05 00:19:39;;;;;;;1.90;1.70;;;11.40;59.60;;;;;;5045040;28;20441;-89
2022/01/05 00:22:07;;;;;;;2.07;1.40;;;11.30;59.60;;;;;;5052390;28;20517;-87
2022/01/05 00:24:36;;;;;;;4.03;1.57;;;11.30;59.90;;;;;;5047564;28;20862;-88
2022/01/05 00:27:03;;;;;;;1.40;1.30;;;11.30;59.90;;;;;;5034595;28;20543;-87
2022/01/05 00:29:32;;;;;;;1.57;1.47;;;11.10;60.00;;;;;;5062261;28;20456;-87
2022/01/05 00:31:59;;;;;;;1.43;1.33;;;10.90;61.10;;;;;;5062616;28;20440;-88
2022/01/05 00:34:26;;;;;;;1.57;1.47;;;10.80;61.80;;;;;;5049008;28;20453;-89
2022/01/05 00:36:53;;;;;;;1.33;1.23;;;10.80;61.80;;;;;;5063046;28;20513;-88
2022/01/05 00:39:20;;;;;;;1.40;1.30;;;10.90;61.60;;;;;;5059984;28;20673;-87
2022/01/05 00:41:48;;;;;;;1.30;1.20;;;10.80;61.90;;;;;;5059371;28;20545;-87
2022/01/05 00:44:19;;;;;;;1.40;1.30;;;10.60;62.10;;;;;;5074808;28;20451;-86
2022/01/05 00:46:51;;;;;;;1.10;1.00;;;10.60;62.10;;;;;;5054485;28;20487;-86
2022/01/05 00:49:19;;;;;;;1.10;1.00;;;10.60;61.80;;;;;;5060487;28;20450;-86
2022/01/05 00:51:47;;;;;;;1.40;1.07;;;10.70;61.90;;;;;;5058430;28;20459;-88
2022/01/05 00:54:16;;;;;;;11.33;1.20;;;10.80;61.90;;;;;;5044451;28;20971;-87
2022/01/05 00:56:44;;;;;;;1.40;1.30;;;10.80;60.90;;;;;;5046733;28;20915;-88
2022/01/05 00:59:12;;;;;;;1.53;1.20;;;10.90;61.50;;;;;;5058207;28;20443;-88
2022/01/05 01:01:40;;;;;;;1.20;1.10;;;10.60;61.00;;;;;;5057411;28;20809;-90
2022/01/05 01:04:10;;;;;;;1.77;1.20;;;10.60;61.90;;;;;;5049337;28;20510;-88
2022/01/05 01:06:38;;;;;;;1.00;1.00;;;10.60;62.00;;;;;;5055457;28;20476;-88
2022/01/05 01:09:06;;;;;;;4.00;1.30;;;10.70;61.90;;;;;;5043591;28;20459;-89
2022/01/05 01:11:33;;;;;;;1.30;1.20;;;10.80;61.50;;;;;;5076227;28;20456;-88
2022/01/05 01:14:01;;;;;;;1.30;1.20;;;11.00;61.30;;;;;;5076689;28;20452;-88
2022/01/05 01:16:30;;;;;;;1.47;1.20;;;11.20;60.60;;;;;;5069444;28;20440;-88
2022/01/05 01:18:58;;;;;;;1.40;1.03;;;11.30;60.50;;;;;;5057442;28;20460;-88
2022/01/05 01:21:27;;;;;;;0.97;0.93;;;10.90;60.20;;;;;;5056459;28;20444;-88
2022/01/05 01:23:55;;;;;;;1.33;1.23;;;11.10;61.20;;;;;;5057870;28;20501;-86
2022/01/05 01:26:25;;;;;;;0.90;0.90;;;11.00;60.00;;;;;;5057062;28;20444;-87
2022/01/05 01:28:54;;;;;;;1.30;1.20;;;10.90;60.50;;;;;;5038802;28;20451;-87
2022/01/05 01:31:22;;;;;;;1.30;1.20;;;11.00;61.30;;;;;;5063341;28;20447;-88
2022/01/05 01:33:50;;;;;;;1.27;1.17;;;11.20;61.10;;;;;;5060463;28;20455;-86
2022/01/05 01:36:19;;;;;;;1.60;1.27;;;11.30;60.90;;;;;;5046620;28;20476;-87
2022/01/05 01:38:48;;;;;;;1.47;1.37;;;11.30;60.70;;;;;;5061310;28;20565;-88
2022/01/05 01:41:16;;;;;;;1.53;1.43;;;11.30;61.10;;;;;;5041749;28;20468;-88
2022/01/05 01:43:44;;;;;;;1.40;1.30;;;11.20;60.20;;;;;;5076923;28;20444;-85
2022/01/05 01:46:11;;;;;;;1.30;1.20;;;11.20;60.70;;;;;;5053540;28;20483;-87
2022/01/05 01:48:40;;;;;;;1.30;1.20;;;11.20;60.80;;;;;;5068965;28;20489;-88
2022/01/05 01:51:07;;;;;;;1.20;1.10;;;11.10;61.70;;;;;;5062080;28;20553;-87
2022/01/05 01:53:34;;;;;;;1.40;1.30;;;11.00;61.10;;;;;;5054887;28;20538;-87
2022/01/05 01:56:07;;;;;;;1.20;1.10;;;10.90;61.50;;;;;;5055385;28;20439;-87
2022/01/05 01:58:36;;;;;;;1.93;1.20;;;10.60;62.80;;;;;;5031977;28;20495;-88
2022/01/05 02:01:05;;;;;;;1.10;1.03;;;10.50;62.80;;;;;;5036611;28;20444;-87
2022/01/05 02:03:33;;;;;;;1.20;1.10;;;10.50;63.20;;;;;;5049439;28;20484;-87
2022/01/05 02:06:00;;;;;;;1.40;1.30;;;10.60;62.60;;;;;;5051658;28;20981;-89
2022/01/05 02:08:28;;;;;;;1.60;1.50;;;10.70;62.40;;;;;;5043979;28;20873;-88
2022/01/05 02:10:56;;;;;;;1.23;1.13;;;10.70;62.30;;;;;;5061933;28;20440;-87
2022/01/05 02:13:25;;;;;;;1.30;1.20;;;10.90;62.20;;;;;;5035621;28;20488;-88
2022/01/05 02:15:52;;;;;;;1.77;1.30;;;10.90;61.90;;;;;;5048256;28;20786;-88
2022/01/05 02:21:06;;;;;;;0.80;0.80;;;10.90;61.50;;;;;;5041870;28;20439;-88
2022/01/05 02:23:34;;;;;;;1.33;1.17;;;10.90;61.70;;;;;;5051995;28;20539;-88
2022/01/05 02:26:02;;;;;;;1.10;1.00;;;11.00;61.50;;;;;;5054774;28;20567;-87
2022/01/05 02:28:30;;;;;;;0.87;0.87;;;10.90;60.80;;;;;;5053024;28;21034;-88
2022/01/05 02:30:58;;;;;;;1.43;1.10;;;10.90;60.20;;;;;;5066313;28;20444;-88
2022/01/05 02:33:26;;;;;;;0.83;0.83;;;10.80;61.60;;;;;;5040922;28;20452;-88
2022/01/05 02:35:54;;;;;;;1.20;1.10;;;10.60;62.10;;;;;;5068598;28;20457;-86
2022/01/05 02:38:24;;;;;;;0.90;0.80;;;10.70;62.30;;;;;;5035562;28;20468;-86
2022/01/05 02:40:53;;;;;;;0.80;0.80;;;10.80;62.40;;;;;;5060411;28;20509;-87
2022/01/05 02:43:21;;;;;;;0.73;0.73;;;10.90;62.20;;;;;;5033995;28;20454;-88
2022/01/05 02:45:49;;;;;;;1.60;0.77;;;10.80;61.80;;;;;;5050049;28;20448;-87
2022/01/05 02:48:17;;;;;;;0.87;0.80;;;10.80;62.00;;;;;;5035418;28;20478;-87
2022/01/05 02:50:46;;;;;;;0.70;0.70;;;10.90;61.70;;;;;;5070794;28;20538;-88
2022/01/05 02:53:14;;;;;;;0.70;0.60;;;10.90;61.60;;;;;;5056639;28;20471;-86
2022/01/05 02:55:43;;;;;;;0.70;0.60;;;10.80;61.20;;;;;;5082358;28;20461;-85
2022/01/05 02:58:11;;;;;;;0.80;0.60;;;10.80;61.60;;;;;;5033134;28;20467;-87
2022/01/05 03:00:39;;;;;;;0.60;0.60;;;10.80;61.60;;;;;;5039613;28;20480;-88
2022/01/05 03:03:07;;;;;;;0.73;0.60;;;10.90;61.90;;;;;;5043474;28;20477;-86
2022/01/05 03:05:35;;;;;;;0.70;0.60;;;10.90;61.20;;;;;;5053926;28;20530;-88
2022/01/05 03:08:03;;;;;;;1.17;0.60;;;10.70;61.30;;;;;;5059093;28;20512;-88
2022/01/05 03:10:30;;;;;;;0.90;0.63;;;10.60;61.60;;;;;;5070965;28;20497;-88
2022/01/05 03:12:59;;;;;;;0.70;0.57;;;10.60;61.30;;;;;;5059715;28;20531;-88
2022/01/05 03:15:28;;;;;;;0.70;0.60;;;10.50;61.70;;;;;;5064628;28;20463;-89
2022/01/05 03:17:56;;;;;;;0.70;0.60;;;10.50;61.90;;;;;;5035009;28;20844;-86
2022/01/05 03:20:23;;;;;;;0.67;0.63;;;10.40;61.60;;;;;;5073304;28;20448;-88
2022/01/05 03:22:51;;;;;;;0.70;0.60;;;10.60;61.80;;;;;;5043137;28;20553;-88
2022/01/05 03:25:19;;;;;;;0.97;0.60;;;10.60;61.30;;;;;;5060191;28;20440;-88
2022/01/05 03:27:49;;;;;;;0.80;0.60;;;10.70;61.20;;;;;;5064936;28;20478;-88
2022/01/05 03:30:21;;;;;;;0.70;0.60;;;10.70;61.50;;;;;;5074021;28;20448;-88
2022/01/05 03:33:08;;;;;;;0.80;0.70;;;10.80;61.30;;;;;;5051320;28;20543;-89
2022/01/05 03:35:38;;;;;;;0.70;0.60;;;10.60;60.80;;;;;;5036363;28;20451;-87
2022/01/05 03:38:07;;;;;;;2.00;0.97;;;10.70;61.20;;;;;;5071822;28;20488;-88
2022/01/05 03:40:37;;;;;;;0.80;0.70;;;10.80;61.30;;;;;;5057364;28;20498;-86
2022/01/05 03:43:06;;;;;;;0.80;0.80;;;10.80;60.70;;;;;;5057712;28;20440;-88
2022/01/05 03:45:36;;;;;;;0.60;0.60;;;10.60;61.00;;;;;;5060110;28;20955;-88
2022/01/05 03:48:07;;;;;;;0.90;0.80;;;10.70;61.70;;;;;;5062688;28;20546;-88
2022/01/05 03:50:36;;;;;;;0.80;0.80;;;10.70;61.30;;;;;;5064374;28;20448;-88
2022/01/05 03:53:05;;;;;;;0.97;0.87;;;10.70;61.00;;;;;;5058852;28;20982;-88
2022/01/05 03:55:33;;;;;;;1.63;0.70;;;10.70;61.50;;;;;;5046275;28;20455;-87
2022/01/05 03:58:02;;;;;;;0.80;0.60;;;10.40;61.50;;;;;;5059249;28;20476;-86
2022/01/05 04:00:32;;;;;;;0.70;0.60;;;10.40;61.70;;;;;;5058081;28;20482;-89
2022/01/05 04:03:01;;;;;;;1.10;0.70;;;10.40;62.00;;;;;;5056911;28;20967;-89
2022/01/05 04:05:29;;;;;;;0.80;0.70;;;10.40;62.30;;;;;;5093137;28;20510;-88
2022/01/05 04:07:56;;;;;;;0.70;0.70;;;10.40;62.20;;;;;;5080179;28;20477;-89
2022/01/05 04:10:24;;;;;;;0.60;0.53;;;10.30;62.40;;;;;;5055711;28;20451;-91
2022/01/05 04:12:51;;;;;;;1.10;0.90;;;10.30;62.10;;;;;;5056136;28;20552;-88
2022/01/05 04:15:20;;;;;;;0.80;0.70;;;10.50;62.60;;;;;;5058873;28;20942;-87
2022/01/05 04:17:48;;;;;;;0.70;0.70;;;10.70;61.90;;;;;;5049701;28;20463;-88
2022/01/05 04:20:17;;;;;;;2.40;0.70;;;10.40;62.80;;;;;;5072551;28;20456;-89
2022/01/05 04:22:45;;;;;;;0.73;0.70;;;10.30;63.10;;;;;;5036665;28;20448;-89
2022/01/05 04:25:13;;;;;;;0.80;0.80;;;10.40;63.50;;;;;;5060884;28;20506;-88
2022/01/05 04:27:40;;;;;;;0.80;0.63;;;10.20;63.90;;;;;;5074797;28;20573;-89
2022/01/05 04:30:10;;;;;;;0.70;0.70;;;9.80;65.20;;;;;;5048998;28;20999;-88
2022/01/05 04:32:38;;;;;;;0.70;0.60;;;9.50;64.20;;;;;;5058381;28;20459;-89
2022/01/05 04:35:06;;;;;;;1.00;0.77;;;9.10;61.90;;;;;;5049003;28;20538;-89
2022/01/05 04:37:34;;;;;;;1.23;0.67;;;8.70;63.20;;;;;;5076644;28;20468;-89
2022/01/05 04:40:02;;;;;;;0.73;0.60;;;8.50;62.90;;;;;;5074322;28;21002;-89
2022/01/05 04:42:29;;;;;;;0.70;0.63;;;8.20;61.30;;;;;;5057813;28;20489;-89
2022/01/05 04:44:56;;;;;;;0.80;0.70;;;8.10;62.40;;;;;;5030942;28;20727;-88
2022/01/05 04:47:24;;;;;;;2.20;0.90;;;8.10;61.40;;;;;;5035192;28;20475;-89
2022/01/05 04:49:50;;;;;;;1.57;1.47;;;8.00;62.90;;;;;;5035330;28;20445;-87
2022/01/05 04:52:18;;;;;;;4.60;2.73;;;8.10;62.10;;;;;;5074958;28;20458;-88
2022/01/05 04:54:46;;;;;;;2.17;2.07;;;8.20;61.70;;;;;;5065585;28;20806;-88
2022/01/05 04:57:13;;;;;;;2.00;1.20;;;8.40;61.60;;;;;;5071778;28;20479;-90
2022/01/05 04:59:40;;;;;;;0.90;0.90;;;8.50;61.50;;;;;;5078875;28;20470;-89
2022/01/05 05:02:07;;;;;;;0.77;0.70;;;8.80;60.90;;;;;;5043017;28;20445;-88
2022/01/05 05:04:34;;;;;;;2.23;2.03;;;8.90;60.50;;;;;;5074017;28;20456;-88
2022/01/05 05:07:01;;;;;;;0.70;0.70;;;9.10;60.70;;;;;;5071869;28;21133;-88
2022/01/05 05:09:28;;;;;;;0.80;0.73;;;8.90;59.60;;;;;;5075661;28;20445;-88
2022/01/05 05:11:57;;;;;;;3.23;1.10;;;9.00;61.00;;;;;;5071675;28;20449;-87
2022/01/05 05:14:24;;;;;;;1.57;1.07;;;8.50;59.40;;;;;;5073755;28;20543;-90
2022/01/05 05:16:51;;;;;;;1.43;1.33;;;8.40;60.80;;;;;;5073792;28;20508;-87
2022/01/05 05:19:18;;;;;;;1.07;0.97;;;8.50;60.50;;;;;;5073210;28;20532;-87
2022/01/05 05:21:45;;;;;;;3.90;1.20;;;8.60;60.70;;;;;;5073703;28;20555;-89
2022/01/05 05:24:15;;;;;;;1.10;1.00;;;8.60;60.20;;;;;;5074728;28;20456;-88
2022/01/05 05:26:42;;;;;;;1.20;1.10;;;8.80;59.50;;;;;;5077330;28;20471;-88
2022/01/05 05:29:10;;;;;;;1.10;1.00;;;8.80;59.10;;;;;;5057929;28;20455;-88
2022/01/05 05:31:37;;;;;;;1.53;0.90;;;8.60;58.60;;;;;;5074009;28;20454;-88
2022/01/05 05:34:04;;;;;;;2.40;1.40;;;8.60;58.70;;;;;;5074946;28;20459;-88
2022/01/05 05:36:31;;;;;;;2.10;1.10;;;8.50;58.70;;;;;;5072833;28;20465;-88
2022/01/05 05:38:58;;;;;;;2.07;1.43;;;8.40;59.20;;;;;;5043077;28;20476;-88
2022/01/05 05:41:25;;;;;;;1.70;1.30;;;8.40;59.60;;;;;;5046791;28;20539;-89
2022/01/05 05:43:52;;;;;;;1.77;1.63;;;8.50;58.90;;;;;;5057301;28;20466;-88
2022/01/05 05:46:21;;;;;;;1.33;1.20;;;8.40;57.70;;;;;;5071727;28;20467;-88
2022/01/05 05:48:48;;;;;;;1.07;0.80;;;8.40;58.50;;;;;;5055094;28;20463;-89
2022/01/05 05:51:15;;;;;;;1.27;0.93;;;8.30;57.50;;;;;;5057148;28;21240;-88
2022/01/05 05:53:42;;;;;;;1.00;0.90;;;8.40;56.90;;;;;;5057688;28;20452;-88
2022/01/05 05:56:09;;;;;;;4.30;1.67;;;8.20;57.60;;;;;;5073220;28;20843;-88
2022/01/05 05:58:36;;;;;;;5.60;1.10;;;8.20;58.30;;;;;;5072345;28;20842;-88
2022/01/05 06:01:03;;;;;;;2.93;1.37;;;8.20;58.70;;;;;;5039857;28;20556;-88
2022/01/05 06:03:32;;;;;;;2.27;1.20;;;8.40;58.10;;;;;;5076515;28;21155;-88
2022/01/05 06:05:59;;;;;;;7.47;2.17;;;8.70;58.90;;;;;;5063514;28;20554;-88
2022/01/05 06:08:26;;;;;;;1.50;1.20;;;8.90;58.80;;;;;;5055393;28;20460;-90
2022/01/05 06:10:53;;;;;;;1.20;1.10;;;9.00;57.30;;;;;;5074152;28;20468;-87
2022/01/05 06:13:20;;;;;;;1.10;0.90;;;9.00;58.00;;;;;;5059896;28;20452;-90
2022/01/05 06:15:47;;;;;;;4.70;1.03;;;8.60;57.50;;;;;;5073299;28;20447;-86
2022/01/05 06:18:14;;;;;;;1.40;1.30;;;8.50;57.60;;;;;;5057841;28;20473;-87
2022/01/05 06:20:42;;;;;;;1.50;1.30;;;8.20;56.80;;;;;;5057105;28;21009;-87
2022/01/05 06:23:09;;;;;;;4.00;1.10;;;7.60;58.20;;;;;;5075129;28;20462;-87
2022/01/05 06:25:37;;;;;;;1.10;1.00;;;7.50;60.20;;;;;;5056065;28;20451;-88
2022/01/05 06:28:04;;;;;;;3.80;1.83;;;7.60;60.50;;;;;;5067344;28;20747;-87
2022/01/05 06:30:31;;;;;;;38.33;18.23;;;7.60;60.80;;;;;;5060285;28;20457;-88
2022/01/05 06:32:58;;;;;;;2.20;2.00;;;7.60;61.40;;;;;;5072420;28;20539;-85
2022/01/05 06:35:25;;;;;;;2.10;1.87;;;7.60;61.00;;;;;;5074551;28;20457;-88
2022/01/05 06:37:53;;;;;;;1.60;1.20;;;7.50;61.40;;;;;;5075856;28;20544;-86
2022/01/05 06:40:20;;;;;;;2.60;2.40;;;7.30;60.70;;;;;;5057240;28;20966;-86
2022/01/05 06:42:47;;;;;;;4.70;2.10;;;7.30;61.50;;;;;;5076628;28;20483;-87
2022/01/05 06:45:14;;;;;;;4.60;2.20;;;7.30;61.80;;;;;;5073052;28;20468;-87
2022/01/05 06:47:42;;;;;;;2.80;1.87;;;7.30;61.90;;;;;;5053716;28;20475;-87
2022/01/05 06:50:10;;;;;;;2.27;1.90;;;7.10;61.40;;;;;;5079472;28;20456;-88
2022/01/05 06:52:38;;;;;;;4.50;2.50;;;7.10;62.40;;;;;;5073201;28;20466;-88
2022/01/05 06:55:09;;;;;;;7.67;2.13;;;7.30;62.30;;;;;;5073404;28;21009;-87
2022/01/05 06:57:39;;;;;;;3.50;2.43;;;7.40;61.10;;;;;;5073376;28;20476;-88
2022/01/05 07:00:08;;;;;;;6.30;2.73;;;7.30;61.10;;;;;;5076878;28;20548;-85
2022/01/05 07:02:35;;;;;;;4.00;2.43;;;7.30;60.50;;;;;;5077343;28;20452;-88
2022/01/05 07:05:02;;;;;;;3.57;2.50;;;7.30;60.50;;;;;;5048113;28;20462;-86
2022/01/05 07:07:29;;;;;;;4.80;2.93;;;7.50;59.90;;;;;;5074382;28;21023;-86
2022/01/05 07:09:56;;;;;;;4.00;2.53;;;7.70;59.60;;;;;;5058898;28;20563;-87
2022/01/05 07:12:25;;;;;;;3.93;2.40;;;7.70;59.90;;;;;;5055746;28;20463;-87
2022/01/05 07:14:52;;;;;;;9.10;3.70;;;7.60;59.60;;;;;;5048305;28;20548;-88
2022/01/05 07:17:19;;;;;;;4.90;2.73;;;7.60;59.60;;;;;;5071529;28;20483;-88
2022/01/05 07:19:46;;;;;;;2.73;2.47;;;7.40;57.40;;;;;;5078017;28;20471;-87
2022/01/05 07:22:13;;;;;;;3.10;1.90;;;7.20;58.70;;;;;;5054605;28;20456;-87
2022/01/05 07:24:40;;;;;;;8.67;2.47;;;7.30;59.20;;;;;;5080948;28;20461;-86
2022/01/05 07:27:08;;;;;;;3.83;2.23;;;7.30;58.90;;;;;;5058130;28;20480;-88
2022/01/05 07:29:36;;;;;;;4.10;2.80;;;7.30;58.40;;;;;;5060537;28;20460;-87
2022/01/05 07:32:04;;;;;;;6.70;2.67;;;7.50;58.70;;;;;;5040543;28;20449;-86
2022/01/05 07:34:31;;;;;;;5.73;2.07;;;7.70;58.80;;;;;;5067261;28;20455;-89
2022/01/05 07:36:59;;;;;;;9.90;2.30;;;7.70;57.10;;;;;;5078888;28;20471;-87
2022/01/05 07:39:26;;;;;;;5.77;2.57;;;7.80;57.20;;;;;;5078453;28;20702;-88
2022/01/05 07:41:55;;;;;;;5.80;2.33;;;7.70;56.50;;;;;;5071327;28;20465;-88
2022/01/05 07:44:22;;;;;;;3.37;1.67;;;7.60;57.10;;;;;;5072169;28;20455;-88
2022/01/05 07:46:50;;;;;;;7.23;3.60;;;7.40;56.60;;;;;;5057304;28;20995;-88
2022/01/05 07:49:17;;;;;;;11.53;3.77;;;7.50;57.00;;;;;;5056144;28;20988;-89
2022/01/05 07:51:44;;;;;;;2.47;2.23;;;7.50;56.60;;;;;;5074484;28;20509;-87
2022/01/05 07:54:11;;;;;;;4.53;3.90;;;7.40;56.30;;;;;;5079409;28;20800;-88
2022/01/05 07:56:38;;;;;;;2.50;1.87;;;7.60;56.90;;;;;;5080242;28;21136;-87
2022/01/05 07:59:06;;;;;;;8.03;2.03;;;7.70;57.40;;;;;;5077424;28;20461;-87
2022/01/05 08:01:33;;;;;;;2.77;1.90;;;7.70;56.40;;;;;;5077551;28;20448;-88
2022/01/05 08:04:01;;;;;;;3.83;2.33;;;7.80;57.10;;;;;;5076389;28;20452;-88
2022/01/05 08:06:28;;;;;;;4.93;3.10;;;7.70;57.70;;;;;;5068490;28;20440;-87
2022/01/05 08:08:55;;;;;;;5.13;4.10;;;7.50;58.10;;;;;;5068983;28;20451;-89
2022/01/05 08:11:22;;;;;;;3.37;2.30;;;7.40;58.70;;;;;;5082391;28;20450;-87
2022/01/05 08:13:49;;;;;;;2.30;1.93;;;7.10;58.20;;;;;;5056286;28;20772;-85
2022/01/05 08:16:17;;;;;;;8.80;2.67;;;7.20;58.20;;;;;;5060385;28;20463;-85
2022/01/05 08:18:44;;;;;;;2.47;2.13;;;7.30;57.70;;;;;;5059703;28;20487;-89
2022/01/05 08:21:13;;;;;;;5.10;2.57;;;7.40;57.40;;;;;;5067028;28;20598;-89
2022/01/05 08:23:40;;;;;;;4.20;2.70;;;7.40;57.00;;;;;;5029463;28;20462;-88
2022/01/05 08:26:07;;;;;;;2.03;1.83;;;7.30;56.80;;;;;;5075226;28;20458;-88
2022/01/05 08:28:36;;;;;;;5.97;2.47;;;7.30;57.00;;;;;;5047333;28;21183;-89
2022/01/05 08:31:03;;;;;;;4.63;2.20;;;7.40;56.90;;;;;;5059713;28;20445;-88
2022/01/05 08:33:30;;;;;;;4.30;2.17;;;7.40;57.00;;;;;;5055283;28;20440;-88
2022/01/05 08:35:57;;;;;;;4.53;2.00;;;7.40;58.10;;;;;;5063759;28;20474;-87
2022/01/05 08:38:26;;;;;;;3.67;2.80;;;7.10;56.40;;;;;;5084319;28;20524;-87
2022/01/05 08:40:53;;;;;;;2.17;1.97;;;6.90;57.10;;;;;;5082930;28;20468;-87
2022/01/05 08:43:20;;;;;;;3.43;2.57;;;7.20;57.60;;;;;;5066813;28;20538;-87
2022/01/05 08:45:48;;;;;;;4.03;1.80;;;7.20;56.50;;;;;;5048707;28;20859;-87
2022/01/05 08:48:15;;;;;;;4.40;1.77;;;7.00;56.50;;;;;;5079908;28;21062;-88
2022/01/05 08:50:43;;;;;;;2.33;2.13;;;6.90;56.50;;;;;;5049224;28;20564;-88
2022/01/05 08:53:11;;;;;;;3.33;2.10;;;6.90;57.00;;;;;;5059783;28;20429;-87
2022/01/05 08:55:41;;;;;;;4.73;1.80;;;6.90;56.00;;;;;;5061308;28;20454;-89
2022/01/05 08:58:09;;;;;;;6.20;1.93;;;7.00;55.20;;;;;;5044975;28;20504;-87
2022/01/05 09:00:37;;;;;;;5.87;1.83;;;7.00;54.70;;;;;;5079305;28;20467;-87
2022/01/05 09:03:05;;;;;;;7.10;3.87;;;6.90;54.90;;;;;;5061233;28;20954;-88
2022/01/05 09:05:32;;;;;;;4.13;1.93;;;7.20;56.50;;;;;;5070941;28;20439;-87
2022/01/05 09:07:59;;;;;;;10.50;2.47;;;6.90;54.50;;;;;;5056436;28;20467;-87
2022/01/05 09:10:26;;;;;;;3.90;1.77;;;6.80;53.10;;;;;;5062651;28;20440;-87
2022/01/05 09:12:56;;;;;;;2.20;2.00;;;6.80;54.40;;;;;;5082700;28;20449;-88
2022/01/05 09:15:23;;;;;;;4.60;2.40;;;7.00;55.10;;;;;;5064076;28;20516;-88
2022/01/05 09:17:50;;;;;;;4.47;2.47;;;7.30;55.50;;;;;;5056308;28;20472;-87
2022/01/05 09:20:17;;;;;;;5.50;2.57;;;7.50;55.70;;;;;;5048011;28;20476;-87
2022/01/05 09:22:44;;;;;;;3.17;1.77;;;7.40;52.90;;;;;;5075146;28;20941;-88
2022/01/05 09:25:14;;;;;;;2.07;1.87;;;7.10;52.50;;;;;;5079254;28;20465;-87
2022/01/05 09:27:42;;;;;;;4.60;1.97;;;7.10;53.30;;;;;;5057651;28;20471;-88
2022/01/05 09:30:13;;;;;;;5.93;1.87;;;7.30;54.50;;;;;;5059353;28;20460;-89
2022/01/05 09:32:40;;;;;;;1.97;1.70;;;7.30;53.20;;;;;;5042273;28;20592;-88
2022/01/05 09:35:10;;;;;;;4.77;2.13;;;7.30;53.80;;;;;;5051310;28;20448;-87
2022/01/05 09:37:48;;;;;;;3.30;2.17;;;7.00;52.90;;;;;;5067365;28;20475;-88
2022/01/05 09:43:01;;;;;;;2.40;1.40;;;7.20;53.00;;;;;;5035934;28;20437;-86
2022/01/05 09:45:33;;;;;;;3.07;2.00;;;7.20;53.30;;;;;;5034015;28;20486;-87
2022/01/05 09:48:36;;;;;;;5.13;2.40;;;7.30;53.80;;;;;;5089024;28;20468;-88
2022/01/05 09:51:09;;;;;;;3.13;1.53;;;7.20;52.60;;;;;;5051269;28;20443;-87
2022/01/05 09:53:37;;;;;;;2.33;1.43;;;7.10;52.90;;;;;;5082991;28;20464;-86
2022/01/05 09:56:05;;;;;;;5.37;1.73;;;7.10;53.40;;;;;;5056641;28;20456;-88
2022/01/05 09:58:35;;;;;;;7.90;2.13;;;7.00;52.70;;;;;;5067802;28;20459;-87
2022/01/05 10:01:05;;;;;;;6.20;2.20;;;7.10;52.50;;;;;;5080027;28;20550;-90
2022/01/05 10:03:32;;;;;;;2.13;1.73;;;7.00;52.70;;;;;;5053570;28;21089;-88
2022/01/05 10:06:00;;;;;;;2.53;1.90;;;7.20;52.80;;;;;;5049053;28;20819;-89
2022/01/05 10:08:27;;;;;;;3.33;1.50;;;7.10;52.00;;;;;;5052769;28;20550;-86
2022/01/05 10:10:54;;;;;;;5.07;1.93;;;7.10;52.30;;;;;;5054557;28;20477;-87
2022/01/05 10:13:22;;;;;;;4.67;2.13;;;7.20;52.10;;;;;;5085460;28;20952;-87
2022/01/05 10:15:49;;;;;;;3.93;1.50;;;7.30;51.60;;;;;;5061485;28;20458;-88
2022/01/05 10:18:22;;;;;;;7.20;2.20;;;7.40;52.80;;;;;;5069864;28;20473;-88
2022/01/05 10:21:01;;;;;;;5.07;2.07;;;7.40;52.40;;;;;;5062647;28;20471;-89
2022/01/05 10:23:36;;;;;;;5.50;2.60;;;7.60;52.80;;;;;;5052726;28;20450;-87
2022/01/05 10:26:24;;;;;;;7.80;2.03;;;7.20;50.40;;;;;;5055986;28;20455;-88
2022/01/05 10:28:52;;;;;;;3.13;1.57;;;7.20;52.30;;;;;;5067639;28;20466;-89
2022/01/05 10:31:22;;;;;;;13.40;3.90;;;7.40;52.00;;;;;;5048301;28;20826;-87
2022/01/05 10:33:51;;;;;;;6.37;3.17;;;7.30;52.20;;;;;;5069729;28;20432;-87
2022/01/05 10:36:18;;;;;;;10.50;3.07;;;7.30;52.90;;;;;;5070877;28;20458;-88
2022/01/05 10:38:54;;;;;;;11.10;4.60;;;7.30;51.80;;;;;;5069607;28;20463;-87
2022/01/05 10:41:23;;;;;;;8.20;2.57;;;7.20;51.90;;;;;;5052115;28;20970;-86
2022/01/05 10:44:14;;;;;;;19.40;5.23;;;7.10;50.90;;;;;;5065314;28;20947;-87
2022/01/05 10:46:45;;;;;;;9.10;5.43;;;7.20;53.40;;;;;;5065375;28;20463;-85
2022/01/05 10:49:32;;;;;;;7.70;4.57;;;7.10;52.20;;;;;;5068546;28;20463;-86
2022/01/05 10:52:03;;;;;;;2.50;1.63;;;7.10;51.90;;;;;;5055265;28;20519;-88
2022/01/05 10:54:31;;;;;;;3.77;1.87;;;7.20;50.90;;;;;;5088134;28;20463;-88
2022/01/05 10:57:11;;;;;;;5.60;3.17;;;7.20;51.30;;;;;;5068135;28;20556;-87
2022/01/05 10:59:42;;;;;;;2.60;1.53;;;7.30;52.00;;;;;;5053724;28;20435;-86
2022/01/05 11:02:26;;;;;;;7.90;2.53;;;7.20;50.60;;;;;;5069884;28;20475;-87
2022/01/05 11:04:58;;;;;;;3.60;1.63;;;7.20;52.40;;;;;;5046156;28;20551;-87
2022/01/05 11:07:26;;;;;;;4.37;2.50;;;7.30;51.50;;;;;;5052757;28;20998;-87
2022/01/05 11:09:56;;;;;;;7.27;1.53;;;6.90;51.00;;;;;;5035289;28;20444;-87
2022/01/05 11:12:32;;;;;;;5.23;1.60;;;6.80;51.50;;;;;;5056464;28;20438;-86
2022/01/05 11:15:30;;;;;;;4.70;1.97;;;7.00;51.90;;;;;;5067693;28;20538;-87
2022/01/05 11:18:12;;;;;;;3.33;2.03;;;7.40;62.70;;;;;;5074466;28;20490;-88
2022/01/05 11:20:47;;;;;;;7.43;2.40;;;7.60;53.90;;;;;;5065396;28;20479;-87
2022/01/05 11:23:15;;;;;;;1.60;1.50;;;7.50;50.90;;;;;;5046678;28;20943;-87
2022/01/05 11:25:44;;;;;;;4.00;2.30;;;7.60;51.30;;;;;;5063263;28;20467;-85
2022/01/05 11:28:13;;;;;;;7.10;2.17;;;7.60;50.80;;;;;;5059800;28;20472;-87
2022/01/05 11:30:41;;;;;;;5.87;2.93;;;7.70;50.90;;;;;;5059083;28;20470;-88
2022/01/05 11:33:10;;;;;;;4.17;2.47;;;7.70;49.70;;;;;;5065860;28;20956;-88
2022/01/05 11:35:38;;;;;;;8.20;3.27;;;7.90;50.90;;;;;;5041313;28;20544;-89
2022/01/05 11:38:08;;;;;;;4.70;2.47;;;8.20;50.20;;;;;;5050237;28;20480;-87
2022/01/05 11:40:39;;;;;;;5.10;3.37;;;8.30;48.80;;;;;;5072595;28;20453;-87
2022/01/05 11:43:09;;;;;;;6.80;2.00;;;8.20;48.60;;;;;;5070627;28;20503;-89
2022/01/05 11:45:44;;;;;;;13.70;2.23;;;8.10;48.50;;;;;;5067030;28;20546;-88
2022/01/05 11:48:15;;;;;;;6.27;4.33;;;7.90;48.70;;;;;;5065120;28;20485;-88
2022/01/05 11:50:48;;;;;;;3.73;2.30;;;7.50;48.00;;;;;;5068929;28;21136;-88
2022/01/05 11:53:31;;;;;;;5.77;2.20;;;7.50;49.00;;;;;;5085900;28;20512;-88
2022/01/05 11:56:11;;;;;;;3.43;1.47;;;7.50;48.20;;;;;;5048092;28;20447;-88
2022/01/05 11:58:55;;;;;;;4.90;1.70;;;7.50;49.30;;;;;;5070810;28;21057;-88
2022/01/05 12:01:26;;;;;;;5.13;1.80;;;7.20;49.90;;;;;;5038747;28;20578;-87
2022/01/05 12:04:05;;;;;;;3.73;2.03;;;7.20;49.60;;;;;;5048048;28;20458;-88
2022/01/05 12:06:34;;;;;;;9.70;2.30;;;7.30;49.70;;;;;;5045603;28;20452;-88
2022/01/05 12:09:04;;;;;;;4.70;2.30;;;7.30;49.40;;;;;;5076558;28;20472;-88
2022/01/05 12:11:34;;;;;;;11.60;2.23;;;7.20;49.80;;;;;;5077680;28;20455;-88
2022/01/05 12:14:03;;;;;;;6.67;2.30;;;7.30;49.80;;;;;;5062286;28;20439;-89
2022/01/05 12:16:53;;;;;;;3.77;1.87;;;7.40;49.00;;;;;;5055716;28;20856;-89
2022/01/05 12:19:22;;;;;;;2.93;1.90;;;7.40;49.90;;;;;;5093468;28;21021;-87
2022/01/05 12:21:51;;;;;;;7.27;2.20;;;7.70;49.60;;;;;;5043082;28;20458;-88
2022/01/05 12:24:19;;;;;;;8.67;1.73;;;7.70;49.00;;;;;;5054800;28;20443;-88
2022/01/05 12:27:19;;;;;;;6.30;2.17;;;7.50;49.20;;;;;;5069767;28;20471;-89
2022/01/05 12:29:48;;;;;;;6.00;3.67;;;7.30;49.80;;;;;;5064734;28;20511;-88
2022/01/05 12:32:31;;;;;;;5.73;2.40;;;7.50;50.60;;;;;;5050743;28;20448;-88
2022/01/05 12:35:01;;;;;;;8.53;4.10;;;7.40;49.50;;;;;;5075481;28;20457;-89
2022/01/05 12:37:39;;;;;;;31.80;16.33;;;7.40;49.20;;;;;;5069512;28;20994;-88
2022/01/05 12:40:28;;;;;;;10.77;4.70;;;7.40;49.80;;;;;;5054406;28;20437;-88
2022/01/05 12:43:28;;;;;;;25.20;11.90;;;7.50;49.50;;;;;;5074462;28;20458;-88
2022/01/05 12:45:57;;;;;;;20.80;9.13;;;7.50;49.60;;;;;;5064984;28;20459;-89
2022/01/05 12:48:58;;;;;;;399.23;114.63;;;7.50;49.30;;;;;;5055237;28;20477;-87
2022/01/05 12:51:44;;;;;;;290.63;90.23;;;7.60;49.90;;;;;;5048792;28;20459;-87
2022/01/05 12:54:17;;;;;;;88.37;28.07;;;7.70;50.20;;;;;;5050779;28;20476;-88
2022/01/05 12:56:47;;;;;;;54.13;17.73;;;7.60;49.60;;;;;;5053837;28;20475;-88
2022/01/05 12:59:18;;;;;;;60.30;21.07;;;7.70;49.70;;;;;;5065040;28;20459;-86
2022/01/05 13:01:45;;;;;;;46.93;16.83;;;7.60;49.70;;;;;;5092691;28;20483;-88
2022/01/05 13:04:14;;;;;;;217.23;63.80;;;7.60;49.60;;;;;;5044974;28;20433;-89
2022/01/05 13:06:44;;;;;;;21.83;12.57;;;7.70;50.70;;;;;;5058120;28;20455;-88
2022/01/05 13:09:14;;;;;;;8.13;5.40;;;7.60;50.10;;;;;;5065642;28;20458;-88
2022/01/05 13:11:43;;;;;;;8.33;7.50;;;7.60;49.70;;;;;;5052537;28;20509;-88